Time;durP1;ratioP1;P1;durP2;ratioP2;P2;SDS_P1;SDS_P2;PMS_P1;PMS_P2;Temp;Humidity;BMP_temperature;BMP_pressure;BME280_temperature;BME280_humidity;BME280_pressure;Samples;Min_cycle;Max_cycle;Signal;HPM_P1;HPM_P2
2023/05/22 00:01:11;;;;;;;20.80;17.75;;;19.40;99.90;;;;;;5132881;27;20031;-53
2023/05/22 00:03:37;;;;;;;23.92;18.13;;;19.50;99.90;;;;;;5133083;27;20041;-56
2023/05/22 00:06:04;;;;;;;23.60;19.45;;;19.50;99.90;;;;;;5132934;27;20497;-54
2023/05/22 00:08:30;;;;;;;24.25;18.70;;;19.50;99.90;;;;;;5131894;27;20050;-57
2023/05/22 00:10:56;;;;;;;21.92;18.90;;;19.50;99.90;;;;;;5132415;27;20035;-55
2023/05/22 00:13:21;;;;;;;22.55;18.83;;;19.50;99.90;;;;;;5132933;27;20095;-53
2023/05/22 00:15:48;;;;;;;17.25;13.85;;;19.50;99.90;;;;;;5132891;27;20035;-55
2023/05/22 00:18:13;;;;;;;13.65;11.35;;;19.50;99.90;;;;;;5132595;27;20487;-56
2023/05/22 00:20:39;;;;;;;14.23;11.07;;;19.40;99.90;;;;;;5113924;27;20035;-56
2023/05/22 00:23:08;;;;;;;14.57;10.30;;;19.30;99.90;;;;;;5131375;27;20096;-55
2023/05/22 00:25:35;;;;;;;12.73;10.13;;;19.30;99.90;;;;;;5132360;27;20558;-56
2023/05/22 00:28:01;;;;;;;12.98;10.32;;;19.20;99.90;;;;;;5132616;27;20054;-55
2023/05/22 00:30:27;;;;;;;15.43;10.48;;;19.10;99.90;;;;;;5132198;27;20039;-57
2023/05/22 00:32:52;;;;;;;12.48;10.82;;;19.10;99.90;;;;;;5113924;27;20442;-54
2023/05/22 00:35:18;;;;;;;14.35;11.60;;;19.00;99.90;;;;;;5132129;27;20039;-56
2023/05/22 00:37:45;;;;;;;12.75;10.80;;;19.00;99.90;;;;;;5132383;27;20039;-57
2023/05/22 00:40:12;;;;;;;13.15;10.82;;;19.00;99.90;;;;;;5113581;27;20046;-53
2023/05/22 00:42:38;;;;;;;13.50;11.25;;;18.90;99.90;;;;;;5132017;27;20047;-53
2023/05/22 00:45:06;;;;;;;14.52;11.82;;;18.90;99.90;;;;;;5131785;27;20042;-56
2023/05/22 00:47:31;;;;;;;12.60;11.13;;;18.80;99.90;;;;;;5132338;27;20041;-55
2023/05/22 00:49:58;;;;;;;12.45;11.13;;;18.80;99.90;;;;;;5132191;27;20113;-55
2023/05/22 00:52:24;;;;;;;13.25;11.77;;;18.90;99.90;;;;;;5131955;27;20043;-56
2023/05/22 00:54:52;;;;;;;12.80;11.05;;;18.80;99.90;;;;;;5132086;27;20082;-56
2023/05/22 00:57:20;;;;;;;13.38;11.25;;;18.80;99.90;;;;;;5131847;27;20038;-55
2023/05/22 00:59:47;;;;;;;13.15;11.23;;;18.70;99.90;;;;;;5131713;27;20108;-57
2023/05/22 01:02:15;;;;;;;16.52;12.40;;;18.80;99.90;;;;;;5132101;27;20379;-51
2023/05/22 01:04:47;;;;;;;17.05;11.07;;;18.70;99.90;;;;;;5131948;27;20478;-56
2023/05/22 01:07:15;;;;;;;16.92;12.30;;;18.70;99.90;;;;;;5131590;27;20039;-51
2023/05/22 01:09:41;;;;;;;15.10;11.43;;;18.70;99.90;;;;;;5131045;27;20099;-53
2023/05/22 01:12:25;;;;;;;13.23;11.82;;;18.70;99.90;;;;;;5131839;27;20475;-55
2023/05/22 01:15:16;;;;;;;15.10;12.60;;;18.70;99.90;;;;;;5113291;27;20033;-52
2023/05/22 01:18:09;;;;;;;15.02;13.10;;;18.60;99.90;;;;;;5131860;27;20272;-52
2023/05/22 01:21:02;;;;;;;15.40;12.52;;;18.60;99.90;;;;;;5130877;28;20146;-56
2023/05/22 01:23:53;;;;;;;15.20;12.95;;;18.50;99.90;;;;;;5131283;28;20474;-57
2023/05/22 01:26:34;;;;;;;16.02;12.88;;;18.50;99.90;;;;;;5131504;28;20047;-55
2023/05/22 01:29:02;;;;;;;14.52;12.73;;;18.50;99.90;;;;;;5131856;28;20099;-54
2023/05/22 01:31:33;;;;;;;16.02;14.32;;;18.50;99.90;;;;;;5131361;28;20043;-55
2023/05/22 01:34:02;;;;;;;16.98;15.00;;;18.40;99.90;;;;;;5131500;28;20479;-54
2023/05/22 01:36:36;;;;;;;18.27;14.85;;;18.40;99.90;;;;;;5131301;28;20039;-57
2023/05/22 01:39:05;;;;;;;18.80;16.45;;;18.30;99.90;;;;;;5131446;28;20054;-55
2023/05/22 01:41:32;;;;;;;19.52;17.13;;;18.30;99.90;;;;;;5131262;28;20058;-55
2023/05/22 01:43:59;;;;;;;21.65;18.33;;;18.40;99.90;;;;;;5131376;28;20109;-54
2023/05/22 01:46:29;;;;;;;19.85;17.52;;;18.40;99.90;;;;;;5131774;28;20035;-57
2023/05/22 01:48:55;;;;;;;19.63;17.52;;;18.30;99.90;;;;;;5131542;28;20042;-57
2023/05/22 01:51:36;;;;;;;23.23;18.15;;;18.30;99.90;;;;;;5131346;28;20039;-56
2023/05/22 01:54:21;;;;;;;21.38;18.63;;;18.30;99.90;;;;;;5113141;28;20035;-55
2023/05/22 01:57:17;;;;;;;23.42;18.95;;;18.20;99.90;;;;;;5112620;28;20459;-52
2023/05/22 01:59:51;;;;;;;20.67;18.48;;;18.20;99.90;;;;;;5131376;28;20078;-54
2023/05/22 02:02:17;;;;;;;;;;;18.20;99.90;;;;;;5131514;28;20043;-56
2023/05/22 02:04:58;;;;;;;23.35;19.88;;;18.20;99.90;;;;;;5131388;28;19915;-56
2023/05/22 02:07:24;;;;;;;24.58;21.30;;;18.20;99.90;;;;;;5129403;28;20027;-56
2023/05/22 02:09:53;;;;;;;24.52;21.88;;;18.20;99.90;;;;;;5131051;28;20122;-57
2023/05/22 02:12:19;;;;;;;26.67;22.42;;;18.30;99.90;;;;;;5130950;28;20045;-56
2023/05/22 02:14:46;;;;;;;24.38;21.85;;;18.20;99.90;;;;;;5131337;28;20039;-53
2023/05/22 02:17:11;;;;;;;28.13;24.05;;;18.30;99.90;;;;;;5131302;28;20039;-57
2023/05/22 02:19:37;;;;;;;25.55;22.77;;;18.10;99.90;;;;;;5131339;27;20088;-53
2023/05/22 02:22:03;;;;;;;28.80;23.98;;;18.20;99.90;;;;;;5135083;27;20043;-57
2023/05/22 02:24:30;;;;;;;28.60;24.88;;;18.20;99.90;;;;;;5135012;27;20035;-56
2023/05/22 02:26:56;;;;;;;28.75;25.73;;;18.10;99.90;;;;;;5135052;27;20394;-55
2023/05/22 02:29:22;;;;;;;26.20;23.40;;;18.20;99.90;;;;;;5134833;27;20083;-55
2023/05/22 02:31:48;;;;;;;30.23;25.80;;;18.20;99.90;;;;;;5134930;27;20046;-56
2023/05/22 02:34:14;;;;;;;30.35;25.70;;;18.20;99.90;;;;;;5134600;27;20045;-53
2023/05/22 02:36:40;;;;;;;24.98;22.27;;;18.30;99.90;;;;;;5133969;27;20439;-55
2023/05/22 02:39:05;;;;;;;29.35;25.58;;;18.20;99.90;;;;;;5134433;27;20043;-56
2023/05/22 02:41:31;;;;;;;27.67;23.67;;;18.20;99.90;;;;;;5134279;27;20078;-56
2023/05/22 02:43:57;;;;;;;28.92;25.33;;;18.20;99.90;;;;;;5134291;27;20030;-55
2023/05/22 02:46:22;;;;;;;29.95;25.27;;;18.10;99.90;;;;;;5134398;27;20031;-55
2023/05/22 02:48:48;;;;;;;31.73;24.75;;;18.20;99.90;;;;;;5134286;27;20046;-57
2023/05/22 02:51:14;;;;;;;27.33;23.75;;;18.20;99.90;;;;;;5134307;27;20039;-56
2023/05/22 02:53:40;;;;;;;28.92;24.98;;;18.10;99.90;;;;;;5134351;27;20031;-56
2023/05/22 02:56:09;;;;;;;31.25;26.40;;;18.00;99.90;;;;;;5134266;27;20058;-56
2023/05/22 02:58:36;;;;;;;28.63;25.15;;;18.00;99.90;;;;;;5115897;27;20621;-56
2023/05/22 03:01:02;;;;;;;29.52;26.33;;;18.20;99.90;;;;;;5133974;27;20027;-56
2023/05/22 03:03:30;;;;;;;29.15;25.90;;;18.10;99.90;;;;;;5134232;27;20076;-55
2023/05/22 03:05:57;;;;;;;30.67;26.65;;;18.10;99.90;;;;;;5134072;27;20098;-54
2023/05/22 03:08:26;;;;;;;31.35;28.00;;;18.10;99.90;;;;;;5133640;27;20471;-54
2023/05/22 03:10:52;;;;;;;33.85;27.83;;;18.20;99.90;;;;;;5134007;27;20091;-52
2023/05/22 03:13:18;;;;;;;30.77;27.15;;;18.10;99.90;;;;;;5134135;27;20035;-57
2023/05/22 03:15:44;;;;;;;31.85;27.48;;;18.00;99.90;;;;;;5134155;27;20050;-55
2023/05/22 03:18:10;;;;;;;31.75;28.15;;;18.10;99.90;;;;;;5133992;27;20027;-52
2023/05/22 03:20:35;;;;;;;36.45;29.55;;;18.10;99.90;;;;;;5133855;27;20035;-55
2023/05/22 03:23:01;;;;;;;36.35;29.98;;;18.10;99.90;;;;;;5134100;27;20039;-55
2023/05/22 03:25:27;;;;;;;32.92;27.08;;;18.10;99.90;;;;;;5133730;27;20369;-55
2023/05/22 03:27:52;;;;;;;30.33;27.02;;;18.00;99.90;;;;;;5133718;27;20042;-57
2023/05/22 03:30:18;;;;;;;30.80;26.45;;;18.10;99.90;;;;;;5133708;27;20478;-55
2023/05/22 03:32:43;;;;;;;32.65;27.60;;;18.00;99.90;;;;;;5132722;27;20482;-55
2023/05/22 03:35:09;;;;;;;32.42;28.40;;;18.00;99.90;;;;;;5133578;27;20473;-53
2023/05/22 03:37:35;;;;;;;33.10;29.30;;;18.00;99.90;;;;;;5132981;27;20118;-55
2023/05/22 03:40:01;;;;;;;32.40;28.70;;;18.00;99.90;;;;;;5133724;27;20500;-56
2023/05/22 03:42:27;;;;;;;32.72;29.00;;;17.90;99.90;;;;;;5132953;27;20061;-56
2023/05/22 03:44:53;;;;;;;36.38;29.33;;;17.80;99.90;;;;;;5133457;27;20506;-51
2023/05/22 03:47:18;;;;;;;34.83;28.83;;;17.90;99.90;;;;;;5133380;27;20043;-56
2023/05/22 03:49:44;;;;;;;33.35;28.40;;;17.80;99.90;;;;;;5132830;27;20039;-57
2023/05/22 03:52:10;;;;;;;32.63;28.35;;;17.90;99.90;;;;;;5133065;27;20046;-57
2023/05/22 03:54:35;;;;;;;30.80;27.45;;;17.80;99.90;;;;;;5133070;27;20035;-56
2023/05/22 03:57:01;;;;;;;31.63;28.15;;;17.70;99.90;;;;;;5132989;27;20039;-57
2023/05/22 03:59:27;;;;;;;33.47;28.40;;;17.70;99.90;;;;;;5132927;27;20042;-57
2023/05/22 04:01:53;;;;;;;32.83;28.63;;;17.90;99.90;;;;;;5132946;27;20031;-57
2023/05/22 04:04:18;;;;;;;35.47;28.63;;;17.80;99.90;;;;;;5132813;27;20035;-56
2023/05/22 04:06:44;;;;;;;33.00;29.42;;;17.80;99.90;;;;;;5114340;27;20528;-56
2023/05/22 04:09:10;;;;;;;35.28;29.95;;;17.80;99.90;;;;;;5132906;27;20046;-57
2023/05/22 04:11:38;;;;;;;34.70;30.90;;;17.70;99.90;;;;;;5133070;27;20062;-53
2023/05/22 04:14:05;;;;;;;32.50;28.52;;;17.80;99.90;;;;;;5132729;27;20046;-55
2023/05/22 04:16:31;;;;;;;33.75;29.95;;;17.70;99.90;;;;;;5114573;27;20113;-55
2023/05/22 04:18:57;;;;;;;33.25;29.67;;;17.80;99.90;;;;;;5132550;27;20042;-55
2023/05/22 04:21:23;;;;;;;35.15;30.33;;;17.70;99.90;;;;;;5132850;27;20420;-55
2023/05/22 04:23:49;;;;;;;35.92;30.17;;;17.70;99.90;;;;;;5132267;27;20035;-57
2023/05/22 04:26:16;;;;;;;33.30;29.70;;;17.60;99.90;;;;;;5132291;27;20035;-54
2023/05/22 04:28:44;;;;;;;34.65;28.80;;;17.70;99.90;;;;;;5132574;27;20039;-55
2023/05/22 04:31:14;;;;;;;35.28;29.77;;;17.50;99.90;;;;;;5114211;27;20114;-55
2023/05/22 04:33:39;;;;;;;33.35;29.00;;;17.60;99.90;;;;;;5132137;27;20065;-56
2023/05/22 04:36:08;;;;;;;32.83;29.30;;;17.40;99.90;;;;;;5132492;27;20035;-56
2023/05/22 04:38:36;;;;;;;32.45;28.95;;;17.50;99.90;;;;;;5114087;27;20043;-57
2023/05/22 04:41:07;;;;;;;34.05;30.00;;;17.50;99.90;;;;;;5132171;27;20513;-56
2023/05/22 04:43:33;;;;;;;32.63;29.23;;;17.40;99.90;;;;;;5131966;27;20100;-53
2023/05/22 04:45:59;;;;;;;33.17;29.58;;;17.50;99.90;;;;;;5132338;27;20039;-57
2023/05/22 04:48:25;;;;;;;36.03;31.13;;;17.50;99.90;;;;;;5131837;27;20055;-54
2023/05/22 04:50:53;;;;;;;36.00;31.65;;;17.40;99.90;;;;;;5113796;28;20039;-58
2023/05/22 04:53:18;;;;;;;35.40;30.98;;;17.40;99.90;;;;;;5131853;27;20057;-53
2023/05/22 04:55:44;;;;;;;37.35;32.15;;;17.30;99.90;;;;;;5132008;27;20023;-54
2023/05/22 04:58:10;;;;;;;37.78;33.63;;;17.40;99.90;;;;;;5131618;27;20038;-56
2023/05/22 05:00:36;;;;;;;38.80;34.45;;;17.40;99.90;;;;;;5131986;27;20039;-56
2023/05/22 05:03:03;;;;;;;40.00;34.20;;;17.50;99.90;;;;;;5132054;27;20027;-56
2023/05/22 05:05:28;;;;;;;38.95;34.78;;;17.50;99.90;;;;;;5132033;27;20035;-55
2023/05/22 05:07:54;;;;;;;41.63;34.97;;;17.50;99.90;;;;;;5131495;27;20041;-56
2023/05/22 05:10:20;;;;;;;41.38;35.92;;;17.30;99.90;;;;;;5131703;27;20112;-56
2023/05/22 05:12:45;;;;;;;39.42;35.22;;;17.30;99.90;;;;;;5131787;27;20039;-54
2023/05/22 05:15:11;;;;;;;41.42;35.78;;;17.40;99.90;;;;;;5113396;28;20030;-57
2023/05/22 05:17:37;;;;;;;46.97;39.65;;;17.30;99.90;;;;;;5095965;28;20043;-56
2023/05/22 05:20:05;;;;;;;43.05;37.30;;;17.40;99.90;;;;;;5131747;27;20039;-56
2023/05/22 05:22:31;;;;;;;46.25;39.08;;;17.20;99.90;;;;;;5131605;28;20035;-56
2023/05/22 05:24:57;;;;;;;42.83;36.85;;;17.30;99.90;;;;;;5131963;28;20035;-57
2023/05/22 05:27:23;;;;;;;44.50;38.75;;;17.40;99.90;;;;;;5131362;28;20035;-55
2023/05/22 05:29:48;;;;;;;42.92;37.92;;;17.40;99.90;;;;;;5131398;28;20082;-56
2023/05/22 05:32:15;;;;;;;44.08;39.10;;;17.30;99.90;;;;;;5131036;27;20035;-54
2023/05/22 05:34:40;;;;;;;43.45;38.42;;;17.40;99.90;;;;;;5113010;28;20039;-57
2023/05/22 05:37:06;;;;;;;43.20;38.53;;;17.40;99.90;;;;;;5131223;28;20066;-56
2023/05/22 05:39:32;;;;;;;43.00;38.40;;;17.40;99.90;;;;;;5131458;28;20422;-53
2023/05/22 05:41:58;;;;;;;42.75;37.58;;;17.20;99.90;;;;;;5131070;28;20072;-58
2023/05/22 05:44:23;;;;;;;44.90;38.55;;;17.30;99.90;;;;;;5112769;28;20039;-56
2023/05/22 05:46:49;;;;;;;42.92;38.40;;;17.50;99.90;;;;;;5131434;28;20038;-56
2023/05/22 05:49:15;;;;;;;42.63;37.15;;;17.50;99.90;;;;;;5131095;27;20039;-57
2023/05/22 05:51:40;;;;;;;44.80;37.08;;;17.50;99.90;;;;;;5131449;28;20039;-57
2023/05/22 05:54:06;;;;;;;39.50;35.22;;;17.40;99.90;;;;;;5131300;27;20389;-54
2023/05/22 05:56:32;;;;;;;43.72;37.33;;;17.50;99.90;;;;;;5134671;27;20474;-52
2023/05/22 05:58:57;;;;;;;42.25;35.50;;;17.50;99.90;;;;;;5135347;27;20043;-56
2023/05/22 06:01:25;;;;;;;40.10;35.70;;;17.50;99.90;;;;;;5135339;27;20377;-53
2023/05/22 06:03:51;;;;;;;42.00;35.92;;;17.70;99.90;;;;;;5134977;27;20035;-56
2023/05/22 06:06:17;;;;;;;41.00;34.70;;;17.60;99.90;;;;;;5135040;27;20350;-55
2023/05/22 06:08:43;;;;;;;41.60;35.63;;;17.60;99.90;;;;;;5134879;27;20045;-52
2023/05/22 06:11:09;;;;;;;40.58;35.17;;;17.80;99.90;;;;;;5116581;27;20126;-53
2023/05/22 06:13:35;;;;;;;39.50;34.90;;;17.70;99.90;;;;;;5134733;27;20043;-56
2023/05/22 06:16:01;;;;;;;40.70;36.33;;;17.90;99.90;;;;;;5116518;27;20097;-57
2023/05/22 06:18:26;;;;;;;40.58;36.17;;;17.90;99.90;;;;;;5135000;27;20031;-56
2023/05/22 06:20:52;;;;;;;40.88;35.70;;;17.80;99.90;;;;;;5135175;27;20047;-56
2023/05/22 06:23:18;;;;;;;39.72;35.25;;;18.00;99.90;;;;;;5116088;27;20274;-55
2023/05/22 06:25:44;;;;;;;39.55;34.78;;;18.10;99.90;;;;;;5135095;27;20031;-58
2023/05/22 06:28:10;;;;;;;39.60;35.35;;;18.00;99.90;;;;;;5135076;27;20634;-55
2023/05/22 06:30:36;;;;;;;39.47;34.05;;;17.90;99.90;;;;;;5134650;27;20121;-56
2023/05/22 06:33:02;;;;;;;41.63;37.22;;;18.00;99.90;;;;;;5134609;27;20047;-56
2023/05/22 06:35:29;;;;;;;43.67;35.40;;;18.10;99.90;;;;;;5134879;27;20494;-58
2023/05/22 06:37:54;;;;;;;38.45;34.45;;;18.20;99.90;;;;;;5134365;27;20047;-53
2023/05/22 06:40:21;;;;;;;39.90;34.42;;;18.20;99.90;;;;;;5134165;27;20453;-54
2023/05/22 06:42:46;;;;;;;37.45;33.10;;;18.20;99.90;;;;;;5115696;27;20047;-57
2023/05/22 06:45:12;;;;;;;41.67;35.05;;;18.30;99.90;;;;;;5134383;27;20075;-53
2023/05/22 06:47:38;;;;;;;41.08;34.65;;;18.20;99.90;;;;;;5115718;27;20087;-54
2023/05/22 06:50:05;;;;;;;36.28;32.38;;;18.20;99.90;;;;;;5134555;27;20031;-58
2023/05/22 06:52:32;;;;;;;34.97;31.20;;;18.30;99.90;;;;;;5134366;27;20107;-53
2023/05/22 06:55:03;;;;;;;34.33;30.73;;;18.10;99.90;;;;;;5134105;27;20054;-54
2023/05/22 06:57:30;;;;;;;34.05;30.45;;;18.10;99.90;;;;;;5134051;27;20484;-57
2023/05/22 06:59:56;;;;;;;33.85;30.25;;;18.10;99.90;;;;;;5133766;27;20035;-58
2023/05/22 07:02:21;;;;;;;35.10;29.50;;;18.00;99.90;;;;;;5134006;27;20068;-55
2023/05/22 07:04:47;;;;;;;34.28;27.20;;;18.00;99.90;;;;;;5134313;27;20031;-59
2023/05/22 07:07:13;;;;;;;31.98;27.33;;;18.10;99.90;;;;;;5133272;27;20027;-55
2023/05/22 07:09:38;;;;;;;31.05;26.70;;;17.90;99.90;;;;;;5134260;27;20039;-59
2023/05/22 07:12:04;;;;;;;32.45;26.10;;;18.00;99.90;;;;;;5115193;27;20478;-57
2023/05/22 07:14:30;;;;;;;31.95;24.98;;;18.00;99.90;;;;;;5098438;27;20043;-58
2023/05/22 07:16:56;;;;;;;28.50;23.95;;;18.00;99.90;;;;;;5133645;27;20439;-55
2023/05/22 07:19:22;;;;;;;29.45;24.38;;;18.00;99.90;;;;;;5133989;27;20074;-53
2023/05/22 07:21:47;;;;;;;33.90;24.23;;;18.10;99.90;;;;;;5133921;27;20077;-52
2023/05/22 07:24:14;;;;;;;29.50;21.63;;;18.10;99.90;;;;;;5133989;27;20031;-56
2023/05/22 07:26:45;;;;;;;26.88;20.48;;;18.30;99.90;;;;;;5133867;27;20081;-55
2023/05/22 07:29:11;;;;;;;24.35;17.25;;;18.30;99.90;;;;;;5133920;27;20482;-56
2023/05/22 07:31:37;;;;;;;24.85;17.67;;;18.30;99.90;;;;;;5133525;27;20035;-58
2023/05/22 07:34:03;;;;;;;24.40;17.83;;;18.40;99.90;;;;;;5133562;27;20142;-57
2023/05/22 07:36:30;;;;;;;23.02;17.27;;;18.40;99.90;;;;;;5133615;27;20106;-56
2023/05/22 07:38:56;;;;;;;24.48;16.05;;;18.50;99.90;;;;;;5133168;27;20128;-56
2023/05/22 07:41:24;;;;;;;22.48;16.38;;;18.50;99.90;;;;;;5132993;27;20036;-56
2023/05/22 07:43:50;;;;;;;22.10;16.40;;;18.50;99.90;;;;;;5133535;27;20036;-56
2023/05/22 07:46:15;;;;;;;24.17;15.93;;;18.50;99.90;;;;;;5133348;27;20339;-56
2023/05/22 07:48:42;;;;;;;21.30;15.63;;;18.60;99.90;;;;;;5133452;27;20039;-54
2023/05/22 07:51:08;;;;;;;19.05;15.32;;;18.50;99.90;;;;;;5114597;27;20051;-55
2023/05/22 07:53:34;;;;;;;26.05;16.38;;;18.50;99.90;;;;;;5133325;27;20035;-56
2023/05/22 07:55:59;;;;;;;22.45;15.40;;;18.50;99.90;;;;;;5114647;27;20494;-53
2023/05/22 07:58:25;;;;;;;23.23;15.95;;;18.60;99.90;;;;;;5133406;27;20054;-57
2023/05/22 08:00:51;;;;;;;20.52;15.68;;;18.50;99.90;;;;;;5133041;27;20419;-54
2023/05/22 08:03:17;;;;;;;22.50;16.20;;;18.60;99.90;;;;;;5133281;27;20132;-54
2023/05/22 08:05:42;;;;;;;22.48;15.65;;;18.60;99.90;;;;;;5133150;27;20075;-55
2023/05/22 08:08:09;;;;;;;25.15;16.30;;;18.70;99.90;;;;;;5132746;27;20039;-58
2023/05/22 08:10:35;;;;;;;21.58;16.08;;;18.80;99.90;;;;;;5132836;27;20047;-57
2023/05/22 08:13:04;;;;;;;19.35;15.70;;;18.80;99.90;;;;;;5133056;27;20489;-57
2023/05/22 08:15:31;;;;;;;22.20;15.30;;;18.90;99.90;;;;;;5132482;27;20039;-56
2023/05/22 08:17:57;;;;;;;22.10;15.80;;;18.90;99.90;;;;;;5132162;27;20434;-57
2023/05/22 08:20:22;;;;;;;19.35;14.05;;;18.90;99.90;;;;;;5132767;27;20067;-54
2023/05/22 08:22:48;;;;;;;19.85;14.85;;;19.00;99.90;;;;;;5132522;27;20386;-57
2023/05/22 08:25:14;;;;;;;19.75;13.98;;;19.00;99.90;;;;;;5132601;27;20031;-55
2023/05/22 08:27:40;;;;;;;23.70;14.63;;;19.00;99.90;;;;;;5132342;27;20106;-57
2023/05/22 08:30:06;;;;;;;22.33;14.15;;;19.00;99.90;;;;;;5132314;27;20154;-57
2023/05/22 08:32:32;;;;;;;17.23;12.77;;;19.10;99.90;;;;;;5132661;27;20470;-58
2023/05/22 08:34:58;;;;;;;21.13;13.77;;;19.20;99.90;;;;;;5132772;27;20053;-57
2023/05/22 08:37:24;;;;;;;19.85;13.15;;;19.20;99.90;;;;;;5132112;27;20038;-58
2023/05/22 08:39:50;;;;;;;21.42;13.07;;;19.20;99.90;;;;;;5132113;27;20039;-59
2023/05/22 08:42:15;;;;;;;19.95;12.93;;;19.30;99.90;;;;;;5132221;27;20047;-57
2023/05/22 08:44:41;;;;;;;21.05;13.18;;;19.40;99.90;;;;;;5131980;27;20027;-56
2023/05/22 08:47:12;;;;;;;18.92;12.80;;;19.50;99.90;;;;;;5132644;27;20042;-57
2023/05/22 08:49:39;;;;;;;15.60;12.13;;;19.60;99.90;;;;;;5132303;27;20059;-57
2023/05/22 08:52:11;;;;;;;17.65;11.65;;;19.70;99.90;;;;;;5132130;27;20035;-58
2023/05/22 08:54:41;;;;;;;17.85;12.02;;;19.70;99.90;;;;;;5132151;27;20031;-56
2023/05/22 08:57:07;;;;;;;19.23;12.38;;;19.80;99.90;;;;;;5132193;27;20074;-55
2023/05/22 08:59:37;;;;;;;17.40;12.02;;;19.90;99.90;;;;;;5131939;27;20038;-57
2023/05/22 09:02:05;;;;;;;19.25;11.85;;;19.90;99.90;;;;;;5132254;27;20083;-54
2023/05/22 09:04:30;;;;;;;19.10;11.65;;;20.00;99.90;;;;;;5131933;27;20039;-57
2023/05/22 09:06:56;;;;;;;15.65;11.23;;;20.10;99.90;;;;;;5131382;27;20035;-56
2023/05/22 09:09:22;;;;;;;17.00;11.25;;;20.20;99.90;;;;;;5131670;27;20118;-56
2023/05/22 09:11:49;;;;;;;19.35;11.93;;;20.30;99.90;;;;;;5131961;27;20109;-56
2023/05/22 09:14:15;;;;;;;15.48;11.35;;;20.30;99.90;;;;;;5113011;27;20038;-56
2023/05/22 09:16:48;;;;;;;16.35;11.82;;;20.50;99.90;;;;;;5131521;27;20397;-55
2023/05/22 09:19:14;;;;;;;17.38;11.80;;;20.60;99.90;;;;;;5131590;27;20035;-56
2023/05/22 09:21:41;;;;;;;18.38;11.80;;;20.80;99.90;;;;;;5131880;27;20066;-56
2023/05/22 09:24:08;;;;;;;15.30;11.30;;;20.90;99.90;;;;;;5131776;28;20034;-56
2023/05/22 09:26:34;;;;;;;19.10;12.38;;;21.00;99.90;;;;;;5131623;28;20035;-56
2023/05/22 09:29:01;;;;;;;17.65;11.68;;;21.00;99.90;;;;;;5131610;27;20045;-55
2023/05/22 09:31:28;;;;;;;16.05;11.25;;;21.00;99.90;;;;;;5134963;27;20394;-56
2023/05/22 09:33:58;;;;;;;15.15;11.00;;;21.20;99.90;;;;;;5136023;27;20047;-57
2023/05/22 09:36:32;;;;;;;20.25;12.32;;;21.30;99.90;;;;;;5135911;27;20045;-58
2023/05/22 09:39:00;;;;;;;16.55;11.68;;;21.30;99.90;;;;;;5116638;27;20116;-55
2023/05/22 09:41:33;;;;;;;18.08;12.73;;;21.40;99.90;;;;;;5135475;27;20095;-56
2023/05/22 09:43:58;;;;;;;14.45;12.50;;;21.60;99.90;;;;;;5136043;27;20047;-57
2023/05/22 09:46:24;;;;;;;16.42;12.38;;;21.70;99.90;;;;;;5135771;27;20496;-58
2023/05/22 09:48:53;;;;;;;15.80;12.32;;;21.80;99.90;;;;;;5135809;27;20039;-57
2023/05/22 09:51:26;;;;;;;20.30;13.02;;;21.80;99.90;;;;;;5135394;27;20095;-56
2023/05/22 09:54:01;;;;;;;16.52;12.45;;;21.90;99.90;;;;;;5117575;27;20135;-58
2023/05/22 09:56:27;;;;;;;17.73;12.57;;;21.90;99.90;;;;;;5135348;27;20046;-56
2023/05/22 09:58:53;;;;;;;16.75;12.95;;;22.10;99.90;;;;;;5135696;27;20031;-56
2023/05/22 10:01:21;;;;;;;15.05;12.23;;;22.20;99.90;;;;;;5135319;27;20027;-57
2023/05/22 10:03:48;;;;;;;18.23;13.70;;;22.20;99.90;;;;;;5135699;27;20058;-58
2023/05/22 10:06:16;;;;;;;19.65;12.90;;;22.30;99.90;;;;;;5135550;27;20031;-57
2023/05/22 10:08:44;;;;;;;16.55;11.68;;;22.30;99.90;;;;;;5135116;27;20529;-58
2023/05/22 10:11:11;;;;;;;17.08;11.48;;;22.40;99.90;;;;;;5135409;27;20130;-57
2023/05/22 10:13:37;;;;;;;18.65;12.50;;;22.50;99.90;;;;;;5135309;27;20035;-56
2023/05/22 10:16:06;;;;;;;20.77;13.32;;;22.70;99.90;;;;;;5135363;27;20043;-57
2023/05/22 10:18:32;;;;;;;19.13;14.05;;;22.80;99.90;;;;;;5134907;27;20090;-58
2023/05/22 10:20:59;;;;;;;17.35;13.55;;;22.80;99.90;;;;;;5135032;27;20441;-59
2023/05/22 10:23:27;;;;;;;20.35;13.57;;;22.90;99.90;;;;;;5116345;27;20031;-56
2023/05/22 10:25:53;;;;;;;20.45;14.57;;;22.90;99.90;;;;;;5135162;27;20143;-57
2023/05/22 10:28:32;;;;;;;16.42;13.20;;;23.00;99.90;;;;;;5135005;27;20046;-55
2023/05/22 10:31:05;;;;;;;19.67;13.07;;;23.00;99.90;;;;;;5135037;27;20055;-55
2023/05/22 10:33:40;;;;;;;19.15;13.32;;;23.10;99.90;;;;;;5135164;27;20540;-56
2023/05/22 10:36:19;;;;;;;21.05;13.57;;;23.20;99.90;;;;;;5134540;27;20038;-58
2023/05/22 10:38:50;;;;;;;18.52;13.65;;;23.30;99.90;;;;;;5134500;27;20095;-57
2023/05/22 10:41:17;;;;;;;18.70;14.05;;;23.40;99.90;;;;;;5134171;27;20034;-55
2023/05/22 10:43:47;;;;;;;18.05;14.45;;;23.40;99.90;;;;;;5134682;27;20046;-53
2023/05/22 10:46:12;;;;;;;20.00;13.82;;;23.40;99.90;;;;;;5134684;27;20031;-57
2023/05/22 10:48:44;;;;;;;19.00;13.48;;;23.50;99.90;;;;;;5134737;27;20099;-58
2023/05/22 10:51:11;;;;;;;25.08;14.45;;;23.50;99.90;;;;;;5134456;27;20066;-58
2023/05/22 10:53:39;;;;;;;19.67;14.35;;;23.60;99.90;;;;;;5134510;27;20715;-58
2023/05/22 10:56:12;;;;;;;18.15;13.90;;;23.70;99.90;;;;;;5134591;27;20051;-56
2023/05/22 10:58:40;;;;;;;16.23;13.75;;;23.80;99.90;;;;;;5134363;27;20385;-57
2023/05/22 11:01:19;;;;;;;18.17;14.50;;;24.00;99.90;;;;;;5134104;27;20066;-59
2023/05/22 11:04:05;;;;;;;18.50;14.25;;;24.20;99.90;;;;;;5116113;27;20038;-58
2023/05/22 11:06:35;;;;;;;19.95;14.32;;;24.30;99.90;;;;;;5134145;27;20042;-59
2023/05/22 11:09:27;;;;;;;15.77;12.93;;;24.30;99.90;;;;;;5133985;27;20118;-57
2023/05/22 11:12:29;;;;;;;17.35;12.93;;;24.40;99.90;;;;;;5115163;27;20047;-56
2023/05/22 11:15:01;;;;;;;17.67;12.60;;;24.40;99.90;;;;;;5134320;27;20047;-58
2023/05/22 11:17:32;;;;;;;20.20;12.93;;;24.50;99.90;;;;;;5133932;27;20149;-58
2023/05/22 11:20:16;;;;;;;19.20;13.02;;;24.60;99.90;;;;;;5133629;27;20129;-59
2023/05/22 11:22:43;;;;;;;18.35;13.55;;;24.80;99.90;;;;;;5133618;27;20039;-57
2023/05/22 11:25:14;;;;;;;17.73;12.50;;;25.00;99.90;;;;;;5133712;27;20047;-57
2023/05/22 11:27:40;;;;;;;21.38;13.68;;;25.20;99.90;;;;;;5133752;27;20027;-58
2023/05/22 11:30:08;;;;;;;22.65;14.10;;;25.20;99.90;;;;;;5133832;27;20051;-58
2023/05/22 11:32:38;;;;;;;17.48;13.43;;;25.30;99.90;;;;;;5133653;27;20050;-57
2023/05/22 11:35:04;;;;;;;24.60;13.48;;;25.40;99.90;;;;;;5115254;27;20034;-60
2023/05/22 11:37:31;;;;;;;17.30;13.65;;;25.50;99.90;;;;;;5133082;27;20073;-57
2023/05/22 11:39:59;;;;;;;19.63;14.20;;;25.60;99.90;;;;;;5133796;27;20047;-59
2023/05/22 11:42:25;;;;;;;15.93;12.93;;;25.60;99.90;;;;;;5133419;27;20379;-58
2023/05/22 11:44:51;;;;;;;20.80;13.30;;;25.80;99.90;;;;;;5133472;27;20088;-59
2023/05/22 11:47:17;;;;;;;15.07;12.60;;;25.90;99.90;;;;;;5133769;27;20373;-59
2023/05/22 11:49:43;;;;;;;16.42;12.50;;;26.00;99.90;;;;;;5133495;27;20056;-56
2023/05/22 11:52:09;;;;;;;17.63;13.45;;;26.00;99.90;;;;;;5133177;27;20144;-55
2023/05/22 11:54:35;;;;;;;15.40;13.05;;;26.10;99.90;;;;;;5132433;27;20042;-58
2023/05/22 11:57:07;;;;;;;16.70;12.38;;;26.10;99.90;;;;;;5133405;27;20500;-57
2023/05/22 11:59:33;;;;;;;17.45;12.35;;;26.20;99.90;;;;;;5133453;27;20038;-58
2023/05/22 12:01:59;;;;;;;17.40;12.30;;;26.30;99.90;;;;;;5133051;27;21218;-58
2023/05/22 12:04:25;;;;;;;15.18;12.13;;;26.40;99.90;;;;;;5133159;27;20078;-57
2023/05/22 12:06:52;;;;;;;15.30;12.65;;;26.50;99.90;;;;;;5132978;27;20431;-58
2023/05/22 12:09:18;;;;;;;17.05;13.00;;;26.60;99.90;;;;;;5132902;27;20647;-58
2023/05/22 12:11:47;;;;;;;15.23;11.40;;;26.70;99.90;;;;;;5133084;27;20630;-58
2023/05/22 12:14:13;;;;;;;17.58;11.73;;;26.80;99.90;;;;;;5133157;27;20035;-58
2023/05/22 12:16:39;;;;;;;16.45;11.90;;;26.90;99.90;;;;;;5132907;27;20070;-57
2023/05/22 12:19:08;;;;;;;18.67;12.98;;;27.10;99.90;;;;;;5132917;27;20494;-56
2023/05/22 12:21:36;;;;;;;15.30;11.75;;;27.20;99.90;;;;;;5114201;27;20114;-57
2023/05/22 12:24:03;;;;;;;14.45;11.55;;;27.20;99.90;;;;;;5132455;27;20078;-58
2023/05/22 12:26:29;;;;;;;13.93;10.85;;;27.30;99.90;;;;;;5132633;27;20046;-59
2023/05/22 12:28:57;;;;;;;15.77;9.73;;;27.20;99.90;;;;;;5133239;27;20046;-59
2023/05/22 12:31:23;;;;;;;14.48;10.68;;;27.30;99.90;;;;;;5132657;27;20073;-59